North Woodstock, NH (03262)

12:34 PM EDT on September 01, 2015 (GMT -0400)
Lincoln, NH | | Change Station
CLOSE
Current Station
Personal Weather Station
Location: Lincoln, NH
Elevation: 860 ft
Nearby Weather Stations

Elev 860 ft 44.05 °N, 71.67 °W | Updated 11 seconds ago

Clear
Clear
79.1 °F
Feels Like 79 °F
N
0.0
Wind Variable Wind from SE
Gusts 3.0 mph

Today
High -- | Low -- °F
--% Chance of Precip.
Yesterday
High -- | Low -- °F
Precip. -- in
6:09 AM 7:23 PM
Waning Gibbous, 88% visible
Pressure 30.05 in
Visibility 10.0 miles
Clouds Clear
Heat Index 79 °F
Dew Point 51 °F
Humidity 37%
Rainfall 0.00 in
Snow Depth Not available.
UV 8 out of 12
Pollen 8.20 out of 12
Air Quality Not available.
Flu Activity Not available.
METAR K1P1 011615Z AUTO 00000KT 10SM CLR 26/14 A3005 RMK AO2 T02550140
Pressure 30.05 in
Visibility 10.0 miles
Clouds Clear
Heat Index 79 °F
Dew Point 51 °F
Humidity 37%
Rainfall 0.00 in
Snow Depth Not available.
UV 8 out of 12
Pollen 8.20 out of 12
Air Quality Not available.
Flu Activity Not available.
METAR K1P1 011615Z AUTO 00000KT 10SM CLR 26/14 A3005 RMK AO2 T02550140

10-Day Weather Forecast

×

Almanac

Astronomy

Sep. 01, 2015 Rise Set
Actual Time
Civil Twilight
Nautical Twilight
Astronomical Twilight
Moon
Length of Visible Light
Length of Day
Tomorrow will be .
, % of the Moon is Illuminated

Today's Extremes

State Highs State Lows

Community

WunderPhotos

Upload Photos

1,851,548 photos uploaded!

WunderBlogs® & News

Nearby

Air Quality

  Air Quality AQ Index Pollutant
Not available.

Snow Depth

Station Depth Elevation

Earthquake Activity

City Distance Mag. Time & Date
Minimum magnitude displayed is 2.5.

Coastal Water Temperatures

Place Temperature

Stations

Nearby Weather Stations

Station Location Temp. Windchill Dew Point Humidity Wind Precip. Elev Updated Type